Terminal Aerodrome Forecast
Issued by NWS

Current Version | Previous Version | Text Only | Print | Product List | Glossary Off
Versions: 1 2 3 4 5 6 7 8 9 10 11 12 13 14 15 16 17 18 19

000
FTUS41 KPBZ 290500
TAFMGW
TAF
KMGW 290530Z 2906/3006 VRB03KT P6SM BKN250
     FM291400 16006KT P6SM BKN080
     FM291800 19011G17KT P6SM -SHRA OVC035
     FM292100 20012G19KT 4SM -SHRA OVC010
     FM300400 26012G22KT 3SM -SHSN OVC008=

USA.gov is the U.S. government's official web portal to all federal, state and local government web resources and services.